createdAt,value
2022-09-30T00:00:11.060Z,99597.89
2022-09-30T00:01:11.066Z,99600.52
2022-09-30T00:02:11.096Z,99600.23
2022-09-30T00:03:11.084Z,99601.61
2022-09-30T00:04:15.064Z,99599.43
2022-09-30T00:05:11.063Z,99598.34
2022-09-30T00:06:11.065Z,99598.83
2022-09-30T00:07:11.061Z,99597.41
2022-09-30T00:08:11.062Z,99601.86
2022-09-30T00:09:11.127Z,99600.51
2022-09-30T00:10:11.062Z,99602.37
2022-09-30T00:11:12.065Z,99601.17
2022-09-30T00:12:11.066Z,99597.97
2022-09-30T00:13:11.063Z,99597.09
2022-09-30T00:14:15.062Z,99591.79
2022-09-30T00:15:11.064Z,99591.74
2022-09-30T00:16:11.128Z,99590.21
2022-09-30T00:17:11.067Z,99592.39
2022-09-30T00:18:11.060Z,99594.60
2022-09-30T00:19:11.065Z,99594.71
2022-09-30T00:20:11.068Z,99596.54
2022-09-30T00:21:11.055Z,99595.93
2022-09-30T00:22:11.059Z,99590.55
2022-09-30T00:23:11.058Z,99591.44
2022-09-30T00:24:11.057Z,99589.04
2022-09-30T00:25:11.059Z,99588.55
2022-09-30T00:26:13.061Z,99586.42
2022-09-30T00:27:11.057Z,99583.94
2022-09-30T00:28:11.059Z,99585.71
2022-09-30T00:29:11.065Z,99583.57
2022-09-30T00:30:11.056Z,99584.94
2022-09-30T00:31:12.109Z,99583.71
2022-09-30T00:32:11.067Z,99584.80
2022-09-30T00:33:11.061Z,99583.54
2022-09-30T00:34:14.060Z,99586.00
2022-09-30T00:35:11.066Z,99587.09
2022-09-30T00:36:11.082Z,99584.91
2022-09-30T00:37:11.059Z,99590.86
2022-09-30T00:38:11.059Z,99585.86
2022-09-30T00:39:15.083Z,99585.69
2022-09-30T00:40:11.058Z,99586.42
2022-09-30T00:41:11.059Z,99585.05
2022-09-30T00:42:14.067Z,99587.35
2022-09-30T00:43:15.062Z,99591.46
2022-09-30T00:44:19.057Z,99594.52
2022-09-30T00:45:12.061Z,99596.69
2022-09-30T00:46:17.099Z,99596.11
2022-09-30T00:47:22.059Z,99597.25
2022-09-30T00:48:17.061Z,99596.76
2022-09-30T00:49:18.145Z,99596.49
2022-09-30T00:50:18.068Z,99593.43
2022-09-30T00:51:11.068Z,99593.93
2022-09-30T00:52:11.059Z,99600.26
2022-09-30T00:53:17.063Z,99598.86
2022-09-30T00:54:16.068Z,99602.10
2022-09-30T00:55:19.062Z,99603.02
2022-09-30T00:56:17.078Z,99603.46
2022-09-30T00:57:11.063Z,99602.27
2022-09-30T00:58:11.068Z,99603.04
2022-09-30T00:59:17.060Z,99601.36
2022-09-30T01:00:11.061Z,99599.12
2022-09-30T01:01:11.095Z,99599.96
2022-09-30T01:02:11.089Z,99600.06
2022-09-30T01:03:11.063Z,99596.57
2022-09-30T01:04:22.061Z,99596.79
2022-09-30T01:05:11.060Z,99596.93
2022-09-30T01:06:11.061Z,99599.16
2022-09-30T01:07:11.057Z,99595.56
2022-09-30T01:08:11.064Z,99596.65
2022-09-30T01:09:11.156Z,99592.41
2022-09-30T01:10:11.064Z,99591.05
2022-09-30T01:11:11.061Z,99592.96
2022-09-30T01:12:16.064Z,99591.16
2022-09-30T01:13:11.060Z,99588.09
2022-09-30T01:14:20.060Z,99589.95
2022-09-30T01:15:11.062Z,99594.48
2022-09-30T01:16:19.101Z,99597.61
2022-09-30T01:17:22.061Z,99597.17
2022-09-30T01:18:19.062Z,99600.66
2022-09-30T01:19:19.178Z,99600.99
2022-09-30T01:20:19.066Z,99601.61
2022-09-30T01:21:19.068Z,99602.53
2022-09-30T01:22:19.059Z,99599.42
2022-09-30T01:23:19.056Z,99597.80
2022-09-30T01:24:19.058Z,99597.25
2022-09-30T01:25:22.065Z,99598.46
2022-09-30T01:26:19.059Z,99599.04
2022-09-30T01:27:19.059Z,99599.00
2022-09-30T01:28:19.058Z,99602.54
2022-09-30T01:29:19.068Z,99603.03
2022-09-30T01:30:19.066Z,99606.21
2022-09-30T01:31:22.164Z,99604.85
2022-09-30T01:32:19.056Z,99601.85
2022-09-30T01:33:22.059Z,99603.75
2022-09-30T01:34:18.060Z,99605.19
2022-09-30T01:35:19.061Z,99606.17
2022-09-30T01:36:22.066Z,99609.23
2022-09-30T01:37:19.059Z,99611.80
2022-09-30T01:38:19.058Z,99616.73
2022-09-30T01:39:19.056Z,99616.82
2022-09-30T01:40:19.057Z,99612.45
2022-09-30T01:41:16.068Z,99615.75
2022-09-30T01:42:22.059Z,99613.88
2022-09-30T01:43:19.058Z,99612.86
2022-09-30T01:44:20.061Z,99615.26
2022-09-30T01:45:15.061Z,99613.44
2022-09-30T01:46:19.123Z,99615.73
2022-09-30T01:47:21.057Z,99615.68
2022-09-30T01:48:19.055Z,99614.91
2022-09-30T01:49:18.059Z,99617.26
2022-09-30T01:50:22.061Z,99613.88
2022-09-30T01:51:19.063Z,99614.25
2022-09-30T01:52:15.059Z,99614.66
2022-09-30T01:53:19.058Z,99616.13
2022-09-30T01:54:19.069Z,99614.28
2022-09-30T01:55:21.087Z,99610.13
2022-09-30T01:56:20.071Z,99611.76
2022-09-30T01:57:22.057Z,99613.41
2022-09-30T01:58:22.067Z,99614.22
2022-09-30T01:59:17.063Z,99610.62
2022-09-30T02:00:11.069Z,99614.77
2022-09-30T02:01:18.201Z,99615.92
2022-09-30T02:02:19.144Z,99613.95
2022-09-30T02:03:17.062Z,99616.07
2022-09-30T02:04:17.066Z,99615.96
2022-09-30T02:05:17.059Z,99614.84
2022-09-30T02:06:13.057Z,99614.88
2022-09-30T02:07:19.063Z,99618.17
2022-09-30T02:08:17.074Z,99618.00
2022-09-30T02:09:19.200Z,99616.58
2022-09-30T02:10:21.061Z,99616.20
2022-09-30T02:11:17.062Z,99618.07
2022-09-30T02:12:15.061Z,99619.32
2022-09-30T02:13:17.067Z,99620.25
2022-09-30T02:14:19.060Z,99619.70
2022-09-30T02:15:12.062Z,99622.33
2022-09-30T02:16:20.111Z,99617.20
2022-09-30T02:17:19.073Z,99619.10
2022-09-30T02:18:16.091Z,99612.84
2022-09-30T02:19:19.059Z,99612.02
2022-09-30T02:20:18.062Z,99607.94
2022-09-30T02:21:12.057Z,99605.54
2022-09-30T02:22:17.059Z,99604.94
2022-09-30T02:23:17.056Z,99600.07
2022-09-30T02:24:16.059Z,99601.83
2022-09-30T02:25:12.060Z,99594.63
2022-09-30T02:26:17.059Z,99592.62
2022-09-30T02:27:16.057Z,99591.76
2022-09-30T02:28:13.059Z,99590.88
2022-09-30T02:29:21.087Z,99591.55
2022-09-30T02:30:13.060Z,99591.86
2022-09-30T02:31:12.074Z,99596.12
2022-09-30T02:32:20.061Z,99594.75
2022-09-30T02:33:15.067Z,99594.09
2022-09-30T02:34:18.061Z,99590.07
2022-09-30T02:35:20.067Z,99588.80
2022-09-30T02:36:19.060Z,99592.95
2022-09-30T02:37:21.066Z,99590.55
2022-09-30T02:38:17.061Z,99588.43
2022-09-30T02:39:19.058Z,99589.25
2022-09-30T02:40:20.059Z,99586.42
2022-09-30T02:41:15.059Z,99585.21
2022-09-30T02:42:17.069Z,99584.56
2022-09-30T02:43:11.060Z,99584.45
2022-09-30T02:44:11.060Z,99584.62
2022-09-30T02:45:16.061Z,99583.86
2022-09-30T02:46:19.136Z,99585.50
2022-09-30T02:47:19.058Z,99587.34
2022-09-30T02:48:19.064Z,99587.08
2022-09-30T02:49:20.216Z,99581.66
2022-09-30T02:50:19.072Z,99581.95
2022-09-30T02:51:21.062Z,99584.79
2022-09-30T02:52:19.061Z,99578.19
2022-09-30T02:53:21.061Z,99576.66
2022-09-30T02:54:19.062Z,99576.17
2022-09-30T02:55:22.070Z,99574.93
2022-09-30T02:56:19.060Z,99573.46
2022-09-30T02:57:21.060Z,99572.96
2022-09-30T02:58:16.061Z,99570.89
2022-09-30T02:59:11.062Z,99570.63
2022-09-30T03:00:13.185Z,99565.88
2022-09-30T03:01:11.127Z,99564.41
2022-09-30T03:02:11.115Z,99563.15
2022-09-30T03:03:19.062Z,99562.23
2022-09-30T03:04:13.069Z,99561.74
2022-09-30T03:05:11.059Z,99562.94
2022-09-30T03:06:11.063Z,99560.39
2022-09-30T03:07:11.068Z,99556.77
2022-09-30T03:08:11.062Z,99556.73
2022-09-30T03:09:11.100Z,99551.28
2022-09-30T03:10:15.065Z,99552.37
2022-09-30T03:11:16.062Z,99549.70
2022-09-30T03:12:17.062Z,99545.02
2022-09-30T03:13:21.067Z,99540.38
2022-09-30T03:14:23.064Z,99538.53
2022-09-30T03:15:19.076Z,99543.59
2022-09-30T03:16:23.117Z,99538.14
2022-09-30T03:17:21.061Z,99542.00
2022-09-30T03:18:19.064Z,99543.93
2022-09-30T03:19:19.186Z,99548.61
2022-09-30T03:20:19.075Z,99550.95
2022-09-30T03:21:18.059Z,99550.25
2022-09-30T03:22:19.058Z,99550.36
2022-09-30T03:23:19.056Z,99545.19
2022-09-30T03:24:19.064Z,99547.96
2022-09-30T03:25:18.061Z,99552.26
2022-09-30T03:26:21.057Z,99554.13
2022-09-30T03:27:19.058Z,99552.21
2022-09-30T03:28:21.063Z,99551.46
2022-09-30T03:29:21.069Z,99549.32
2022-09-30T03:30:16.073Z,99548.82
2022-09-30T03:31:19.103Z,99546.93
2022-09-30T03:32:21.063Z,99545.62
2022-09-30T03:33:16.058Z,99544.91
2022-09-30T03:34:23.060Z,99545.51
2022-09-30T03:35:19.063Z,99542.29
2022-09-30T03:36:19.067Z,99540.72
2022-09-30T03:37:20.060Z,99540.22
2022-09-30T03:38:19.060Z,99541.91
2022-09-30T03:39:21.097Z,99543.55
2022-09-30T03:40:22.067Z,99543.59
2022-09-30T03:41:19.074Z,99542.35
2022-09-30T03:42:22.940Z,99539.08
2022-09-30T03:43:21.058Z,99541.48
2022-09-30T03:44:21.058Z,99542.14
2022-09-30T03:45:23.061Z,99541.16
2022-09-30T03:46:19.126Z,99541.82
2022-09-30T03:47:15.058Z,99538.98
2022-09-30T03:48:11.061Z,99537.56
2022-09-30T03:49:14.084Z,99536.36
2022-09-30T03:50:12.060Z,99533.97
2022-09-30T03:51:11.067Z,99535.00
2022-09-30T03:52:12.057Z,99534.95
2022-09-30T03:53:11.062Z,99535.22
2022-09-30T03:54:13.066Z,99531.94
2022-09-30T03:55:11.061Z,99532.93
2022-09-30T03:56:11.073Z,99530.85
2022-09-30T03:57:11.066Z,99530.86
2022-09-30T03:58:11.062Z,99531.68
2022-09-30T03:59:21.168Z,99528.68
2022-09-30T04:00:11.060Z,99526.12
2022-09-30T04:01:17.240Z,99529.43
2022-09-30T04:02:15.109Z,99532.43
2022-09-30T04:03:11.063Z,99532.76
2022-09-30T04:04:11.071Z,99538.28
2022-09-30T04:05:11.064Z,99535.92
2022-09-30T04:06:12.059Z,99538.71
2022-09-30T04:07:11.064Z,99538.11
2022-09-30T04:08:11.062Z,99533.54
2022-09-30T04:09:11.119Z,99532.60
2022-09-30T04:10:11.064Z,99528.95
2022-09-30T04:11:11.062Z,99525.68
2022-09-30T04:12:11.058Z,99527.10
2022-09-30T04:13:11.065Z,99527.22
2022-09-30T04:14:11.062Z,99530.47
2022-09-30T04:15:11.060Z,99530.31
2022-09-30T04:16:11.175Z,99532.05
2022-09-30T04:17:11.064Z,99531.41
2022-09-30T04:18:11.060Z,99535.05
2022-09-30T04:19:11.061Z,99532.11
2022-09-30T04:20:11.063Z,99530.43
2022-09-30T04:21:11.056Z,99528.02
2022-09-30T04:22:11.057Z,99526.23
2022-09-30T04:23:11.066Z,99526.45
2022-09-30T04:24:11.057Z,99523.06
2022-09-30T04:25:11.060Z,99523.61
2022-09-30T04:26:12.067Z,99526.12
2022-09-30T04:27:11.060Z,99523.99
2022-09-30T04:28:11.058Z,99521.38
2022-09-30T04:29:11.059Z,99517.88
2022-09-30T04:30:11.061Z,99516.36
2022-09-30T04:31:11.096Z,99513.27
2022-09-30T04:32:11.059Z,99512.18
2022-09-30T04:33:11.061Z,99509.61
2022-09-30T04:34:11.057Z,99512.28
2022-09-30T04:35:11.057Z,99509.67
2022-09-30T04:36:11.067Z,99508.15
2022-09-30T04:37:11.308Z,99505.04
2022-09-30T04:38:11.061Z,99503.57
2022-09-30T04:39:11.067Z,99504.49
2022-09-30T04:40:11.058Z,99498.72
2022-09-30T04:41:13.059Z,99497.52
2022-09-30T04:42:11.068Z,99495.46
2022-09-30T04:43:11.061Z,99491.15
2022-09-30T04:44:11.060Z,99492.89
2022-09-30T04:45:13.058Z,99492.40
2022-09-30T04:46:11.095Z,99489.45
2022-09-30T04:47:11.058Z,99490.34
2022-09-30T04:48:11.059Z,99488.70
2022-09-30T04:49:11.067Z,99492.63
2022-09-30T04:50:11.059Z,99491.69
2022-09-30T04:51:11.060Z,99494.59
2022-09-30T04:52:11.067Z,99488.15
2022-09-30T04:53:11.085Z,99490.94
2022-09-30T04:54:11.061Z,99484.73
2022-09-30T04:55:11.067Z,99485.98
2022-09-30T04:56:11.060Z,99483.63
2022-09-30T04:57:11.063Z,99482.99
2022-09-30T04:58:11.069Z,99486.08
2022-09-30T04:59:11.064Z,99483.90
2022-09-30T05:00:13.063Z,99482.01
2022-09-30T05:01:14.151Z,99480.76
2022-09-30T05:02:11.143Z,99479.66
2022-09-30T05:03:11.078Z,99474.06
2022-09-30T05:04:11.061Z,99471.49
2022-09-30T05:05:11.062Z,99475.36
2022-09-30T05:06:11.065Z,99474.39
2022-09-30T05:07:12.061Z,99473.30
2022-09-30T05:08:11.069Z,99469.15
2022-09-30T05:09:11.096Z,99467.73
2022-09-30T05:10:11.064Z,99465.55
2022-09-30T05:11:15.069Z,99463.48
2022-09-30T05:12:11.062Z,99464.09
2022-09-30T05:13:11.058Z,99460.76
2022-09-30T05:14:11.063Z,99460.48
2022-09-30T05:15:11.064Z,99459.85
2022-09-30T05:16:11.079Z,99458.63
2022-09-30T05:17:11.065Z,99452.66
2022-09-30T05:18:11.064Z,99453.85
2022-09-30T05:19:11.062Z,99448.19
2022-09-30T05:20:17.663Z,99448.19
2022-09-30T05:21:13.118Z,99449.28
2022-09-30T05:22:11.057Z,99454.24
2022-09-30T05:23:11.058Z,99453.52
2022-09-30T05:24:11.064Z,99454.67
2022-09-30T05:25:11.058Z,99447.82
2022-09-30T05:26:12.461Z,99447.53
2022-09-30T05:27:11.063Z,99448.14
2022-09-30T05:28:11.059Z,99445.20
2022-09-30T05:29:11.054Z,99442.74
2022-09-30T05:30:11.065Z,99441.65
2022-09-30T05:31:11.079Z,99441.11
2022-09-30T05:32:11.055Z,99440.94
2022-09-30T05:33:11.061Z,99436.14
2022-09-30T05:34:11.060Z,99435.12
2022-09-30T05:35:11.059Z,99434.37
2022-09-30T05:36:11.059Z,99426.25
2022-09-30T05:37:11.058Z,99426.29
2022-09-30T05:38:11.057Z,99423.59
2022-09-30T05:39:11.061Z,99422.27
2022-09-30T05:40:11.059Z,99419.93
2022-09-30T05:41:11.058Z,99418.46
2022-09-30T05:42:14.008Z,99418.52
2022-09-30T05:43:11.066Z,99414.32
2022-09-30T05:44:11.058Z,99411.32
2022-09-30T05:45:11.060Z,99408.11
2022-09-30T05:46:11.066Z,99409.96
2022-09-30T05:47:11.058Z,99409.75
2022-09-30T05:48:11.057Z,99412.46
2022-09-30T05:49:11.063Z,99412.63
2022-09-30T05:50:11.060Z,99412.40
2022-09-30T05:51:11.057Z,99410.11
2022-09-30T05:52:11.062Z,99412.23
2022-09-30T05:53:11.062Z,99403.40
2022-09-30T05:54:11.056Z,99402.09
2022-09-30T05:55:11.059Z,99403.86
2022-09-30T05:56:11.067Z,99400.70
2022-09-30T05:57:11.058Z,99401.62
2022-09-30T05:58:11.061Z,99400.86
2022-09-30T05:59:11.067Z,99401.96
2022-09-30T06:00:11.069Z,99399.28
2022-09-30T06:01:14.565Z,99394.58
2022-09-30T06:02:11.196Z,99390.61
2022-09-30T06:03:11.130Z,99391.15
2022-09-30T06:04:11.063Z,99393.76
2022-09-30T06:05:11.067Z,99395.28
2022-09-30T06:06:11.064Z,99392.80
2022-09-30T06:07:11.062Z,99394.99
2022-09-30T06:08:12.069Z,99399.11
2022-09-30T06:09:11.139Z,99399.48
2022-09-30T06:10:11.065Z,99394.95
2022-09-30T06:11:14.068Z,99396.52
2022-09-30T06:12:11.063Z,99394.26
2022-09-30T06:13:11.060Z,99390.26
2022-09-30T06:14:11.062Z,99386.18
2022-09-30T06:15:11.067Z,99387.87
2022-09-30T06:16:11.159Z,99384.27
2022-09-30T06:17:11.063Z,99380.11
2022-09-30T06:18:14.635Z,99380.20
2022-09-30T06:19:13.089Z,99376.84
2022-09-30T06:20:11.061Z,99377.62
2022-09-30T06:21:13.061Z,99375.19
2022-09-30T06:22:11.084Z,99374.22
2022-09-30T06:23:11.057Z,99371.30
2022-09-30T06:24:15.059Z,99369.06
2022-09-30T06:25:11.061Z,99365.71
2022-09-30T06:26:11.058Z,99369.84
2022-09-30T06:27:11.055Z,99365.21
2022-09-30T06:28:11.059Z,99366.00
2022-09-30T06:29:11.059Z,99362.70
2022-09-30T06:30:11.054Z,99362.51
2022-09-30T06:31:11.124Z,99359.70
2022-09-30T06:32:11.061Z,99361.10
2022-09-30T06:33:11.056Z,99356.57
2022-09-30T06:34:11.061Z,99357.57
2022-09-30T06:35:11.062Z,99355.06
2022-09-30T06:36:11.059Z,99357.77
2022-09-30T06:37:11.059Z,99363.91
2022-09-30T06:38:11.061Z,99363.28
2022-09-30T06:39:13.624Z,99362.61
2022-09-30T06:40:11.061Z,99366.52
2022-09-30T06:41:11.068Z,99363.01
2022-09-30T06:42:11.057Z,99360.75
2022-09-30T06:43:11.061Z,99360.88
2022-09-30T06:44:11.085Z,99356.73
2022-09-30T06:45:14.645Z,99350.43
2022-09-30T06:46:17.658Z,99349.56
2022-09-30T06:47:23.735Z,99351.74
2022-09-30T06:48:14.220Z,99351.14
2022-09-30T06:49:13.818Z,99349.05
2022-09-30T06:50:22.011Z,99347.25
2022-09-30T06:51:13.076Z,99345.18
2022-09-30T06:52:12.061Z,99346.25
2022-09-30T06:53:11.059Z,99342.03
2022-09-30T06:54:11.074Z,99339.93
2022-09-30T06:55:11.069Z,99340.66
2022-09-30T06:56:11.129Z,99339.11
2022-09-30T06:57:11.063Z,99343.26
2022-09-30T06:58:14.069Z,99346.20
2022-09-30T06:59:11.063Z,99341.73
2022-09-30T07:00:11.056Z,99337.80
2022-09-30T07:01:11.089Z,99340.01
2022-09-30T07:02:11.127Z,99341.59
2022-09-30T07:03:21.057Z,99337.06
2022-09-30T07:04:14.062Z,99336.76
2022-09-30T07:05:11.075Z,99337.77
2022-09-30T07:06:11.085Z,99338.64
2022-09-30T07:07:11.063Z,99336.24
2022-09-30T07:08:11.064Z,99337.44
2022-09-30T07:09:11.107Z,99337.21
2022-09-30T07:10:11.062Z,99337.21
2022-09-30T07:11:15.065Z,99338.34
2022-09-30T07:12:12.064Z,99340.44
2022-09-30T07:13:11.060Z,99333.89
2022-09-30T07:14:11.064Z,99333.94
2022-09-30T07:15:13.744Z,99337.16
2022-09-30T07:16:11.091Z,99338.45
2022-09-30T07:17:11.065Z,99343.71
2022-09-30T07:18:11.070Z,99343.88
2022-09-30T07:19:11.064Z,99344.39
2022-09-30T07:20:11.066Z,99343.52
2022-09-30T07:21:11.061Z,99343.02
2022-09-30T07:22:15.062Z,99347.83
2022-09-30T07:23:11.071Z,99341.87
2022-09-30T07:24:11.057Z,99336.41
2022-09-30T07:25:11.063Z,99331.80
2022-09-30T07:26:11.056Z,99330.76
2022-09-30T07:27:11.059Z,99324.22
2022-09-30T07:28:11.067Z,99326.27
2022-09-30T07:29:11.060Z,99319.75
2022-09-30T07:30:16.304Z,99311.14
2022-09-30T07:31:31.801Z,99309.85
2022-09-30T07:32:13.117Z,99310.65
2022-09-30T07:33:11.060Z,99299.74
2022-09-30T07:34:12.056Z,99304.42
2022-09-30T07:35:11.061Z,99298.57
2022-09-30T07:36:12.063Z,99298.05
2022-09-30T07:37:11.060Z,99296.71
2022-09-30T07:38:11.061Z,99291.72
2022-09-30T07:39:11.069Z,99293.34
2022-09-30T07:40:11.058Z,99288.75
2022-09-30T07:41:12.075Z,99291.37
2022-09-30T07:42:11.061Z,99290.57
2022-09-30T07:43:11.062Z,99294.09
2022-09-30T07:44:11.061Z,99294.69
2022-09-30T07:45:11.068Z,99296.03
2022-09-30T07:46:15.124Z,99294.72
2022-09-30T07:47:11.059Z,99293.79
2022-09-30T07:48:15.064Z,99292.54
2022-09-30T07:49:14.062Z,99294.07
2022-09-30T07:50:11.060Z,99295.91
2022-09-30T07:51:15.061Z,99292.35
2022-09-30T07:52:11.069Z,99292.84
2022-09-30T07:53:11.058Z,99293.58
2022-09-30T07:54:14.063Z,99299.68
2022-09-30T07:55:11.065Z,99290.66
2022-09-30T07:56:11.061Z,99292.73
2022-09-30T07:57:11.683Z,99287.58
2022-09-30T07:58:11.062Z,99278.66
2022-09-30T07:59:11.063Z,99275.52
2022-09-30T08:00:30.276Z,99278.66
2022-09-30T08:01:14.156Z,99276.37
2022-09-30T08:02:16.186Z,99272.02
2022-09-30T08:03:11.061Z,99269.71
2022-09-30T08:04:11.061Z,99266.75
2022-09-30T08:05:11.064Z,99261.97
2022-09-30T08:06:12.062Z,99259.64
2022-09-30T08:07:11.060Z,99260.18
2022-09-30T08:08:11.064Z,99261.63
2022-09-30T08:09:11.089Z,99262.80
2022-09-30T08:10:11.145Z,99258.18
2022-09-30T08:11:11.061Z,99259.70
2022-09-30T08:12:11.066Z,99260.95
2022-09-30T08:13:11.061Z,99260.05
2022-09-30T08:14:15.062Z,99252.48
2022-09-30T08:15:13.071Z,99250.06
2022-09-30T08:16:11.134Z,99246.99
2022-09-30T08:17:11.061Z,99242.60
2022-09-30T08:18:11.065Z,99242.00
2022-09-30T08:19:15.063Z,99234.46
2022-09-30T08:20:13.832Z,99240.52
2022-09-30T08:21:11.059Z,99238.05
2022-09-30T08:22:11.067Z,99239.76
2022-09-30T08:23:11.058Z,99241.89
2022-09-30T08:24:11.058Z,99244.09
2022-09-30T08:25:11.065Z,99244.93
2022-09-30T08:26:11.058Z,99236.83
2022-09-30T08:27:11.120Z,99236.24
2022-09-30T08:28:11.061Z,99230.39
2022-09-30T08:29:12.377Z,99230.68
2022-09-30T08:30:11.058Z,99227.51
2022-09-30T08:31:12.063Z,99226.62
2022-09-30T08:32:11.110Z,99227.40
2022-09-30T08:33:11.058Z,99223.51
2022-09-30T08:34:11.057Z,99228.20
2022-09-30T08:35:11.059Z,99225.75
2022-09-30T08:36:16.065Z,99226.09
2022-09-30T08:37:11.065Z,99223.13
2022-09-30T08:38:11.105Z,99226.33
2022-09-30T08:39:11.086Z,99225.18
2022-09-30T08:40:19.058Z,99226.61
2022-09-30T08:41:19.065Z,99229.81
2022-09-30T08:42:36.142Z,99231.36
2022-09-30T08:43:23.089Z,99232.88
2022-09-30T08:44:23.216Z,99234.11
2022-09-30T08:45:19.055Z,99232.08
2022-09-30T08:46:16.129Z,99230.83
2022-09-30T08:47:19.071Z,99228.59
2022-09-30T08:48:19.065Z,99230.98
2022-09-30T08:49:19.107Z,99228.05
2022-09-30T08:50:21.060Z,99223.95
2022-09-30T08:51:19.063Z,99217.64
2022-09-30T08:52:30.123Z,99219.47
2022-09-30T08:53:17.346Z,99216.56
2022-09-30T08:54:16.072Z,99215.53
2022-09-30T08:55:15.091Z,99214.02
2022-09-30T08:56:15.067Z,99213.20
2022-09-30T08:57:12.060Z,99209.85
2022-09-30T08:58:21.057Z,99210.84
2022-09-30T08:59:19.061Z,99210.28
2022-09-30T09:00:13.064Z,99205.68
2022-09-30T09:01:19.132Z,99207.20
2022-09-30T09:02:21.149Z,99199.90
2022-09-30T09:03:11.057Z,99202.97
2022-09-30T09:04:11.064Z,99202.53
2022-09-30T09:05:17.063Z,99204.57
2022-09-30T09:06:21.061Z,99201.11
2022-09-30T09:07:19.058Z,99201.48
2022-09-30T09:08:21.063Z,99202.97
2022-09-30T09:09:21.153Z,99196.22
2022-09-30T09:10:23.070Z,99195.59
2022-09-30T09:11:21.063Z,99198.43
2022-09-30T09:12:23.070Z,99195.10
2022-09-30T09:13:19.061Z,99191.77
2022-09-30T09:14:21.069Z,99195.64
2022-09-30T09:15:21.073Z,99193.89
2022-09-30T09:16:19.109Z,99191.34
2022-09-30T09:17:19.141Z,99191.12
2022-09-30T09:18:23.514Z,99182.48
2022-09-30T09:19:13.108Z,99184.18
2022-09-30T09:20:17.068Z,99184.12
2022-09-30T09:21:19.060Z,99188.05
2022-09-30T09:22:11.070Z,99185.41
2022-09-30T09:23:12.054Z,99182.81
2022-09-30T09:24:17.069Z,99177.46
2022-09-30T09:25:14.059Z,99176.44
2022-09-30T09:26:14.057Z,99179.92
2022-09-30T09:27:20.165Z,99177.69
2022-09-30T09:28:19.133Z,99170.63
2022-09-30T09:29:19.108Z,99169.96
2022-09-30T09:30:13.061Z,99167.32
2022-09-30T09:31:15.132Z,99167.73
2022-09-30T09:32:15.115Z,99164.03
2022-09-30T09:33:20.067Z,99156.09
2022-09-30T09:34:13.073Z,99155.27
2022-09-30T09:35:21.057Z,99150.89
2022-09-30T09:36:19.055Z,99142.98
2022-09-30T09:37:19.061Z,99139.48
2022-09-30T09:38:23.070Z,99134.77
2022-09-30T09:39:21.132Z,99127.32
2022-09-30T09:40:18.130Z,99122.95
2022-09-30T09:41:19.059Z,99124.59
2022-09-30T09:42:19.060Z,99119.57
2022-09-30T09:43:22.869Z,99115.19
2022-09-30T09:44:19.073Z,99112.38
2022-09-30T09:45:19.061Z,99111.09
2022-09-30T09:46:19.137Z,99115.52
2022-09-30T09:47:11.062Z,99101.41
2022-09-30T09:48:11.064Z,99102.54
2022-09-30T09:49:19.061Z,99096.68
2022-09-30T09:50:18.121Z,99092.55
2022-09-30T09:51:19.063Z,99089.57
2022-09-30T09:52:19.064Z,99082.41
2022-09-30T09:53:19.074Z,99082.41
2022-09-30T09:54:11.062Z,99084.30
2022-09-30T09:55:11.061Z,99085.32
2022-09-30T09:56:19.065Z,99086.18
2022-09-30T09:57:11.069Z,99083.59
2022-09-30T09:58:13.063Z,99085.70
2022-09-30T09:59:19.719Z,99085.46
2022-09-30T10:00:25.064Z,99084.11
2022-09-30T10:01:19.152Z,99083.41
2022-09-30T10:02:19.142Z,99080.49
2022-09-30T10:03:23.065Z,99078.56
2022-09-30T10:04:19.180Z,99079.42
2022-09-30T10:05:23.058Z,99077.30
2022-09-30T10:06:13.065Z,99077.92
2022-09-30T10:07:15.065Z,99075.25
2022-09-30T10:08:19.065Z,99069.11
2022-09-30T10:09:19.134Z,99062.36
2022-09-30T10:10:22.534Z,99060.34
2022-09-30T10:11:21.082Z,99057.74
2022-09-30T10:12:19.065Z,99054.36
2022-09-30T10:13:16.061Z,99059.62
2022-09-30T10:14:19.185Z,99051.06
2022-09-30T10:15:19.063Z,99047.45
2022-09-30T10:16:19.142Z,99039.36
2022-09-30T10:17:19.066Z,99033.39
2022-09-30T10:18:19.063Z,99033.25
2022-09-30T10:19:19.065Z,99028.93
2022-09-30T10:20:20.065Z,99019.00
2022-09-30T10:21:19.073Z,99018.37
2022-09-30T10:22:19.060Z,99015.02
2022-09-30T10:23:18.058Z,99013.60
2022-09-30T10:24:19.123Z,99006.35
2022-09-30T10:25:18.062Z,99013.76
2022-09-30T10:26:19.129Z,99009.78
2022-09-30T10:27:19.062Z,99004.92
2022-09-30T10:28:19.101Z,99004.27
2022-09-30T10:29:19.099Z,99001.97
2022-09-30T10:30:11.062Z,98993.81
2022-09-30T10:31:17.149Z,98997.35
2022-09-30T10:32:11.101Z,98998.23
2022-09-30T10:33:16.061Z,98999.84
2022-09-30T10:34:19.060Z,98998.83
2022-09-30T10:35:20.058Z,98991.75
2022-09-30T10:36:15.060Z,98991.93
2022-09-30T10:37:15.066Z,98991.70
2022-09-30T10:38:14.085Z,98990.20
2022-09-30T10:39:19.059Z,98984.26
2022-09-30T10:40:15.105Z,98983.03
2022-09-30T10:41:11.060Z,98987.53
2022-09-30T10:42:17.088Z,98996.80
2022-09-30T10:43:19.061Z,98979.14
2022-09-30T10:44:16.066Z,98985.84
2022-09-30T10:45:19.077Z,98981.10
2022-09-30T10:46:25.880Z,98983.60
2022-09-30T10:47:16.228Z,98971.38
2022-09-30T10:48:17.066Z,98978.21
2022-09-30T10:49:19.063Z,98976.59
2022-09-30T10:50:14.143Z,98979.08
2022-09-30T10:51:21.059Z,98972.48
2022-09-30T10:52:21.065Z,98971.20
2022-09-30T10:53:19.063Z,98971.24
2022-09-30T10:54:19.065Z,98972.84
2022-09-30T10:55:19.064Z,98962.32
2022-09-30T10:56:11.065Z,98968.42
2022-09-30T10:57:15.058Z,98960.33
2022-09-30T10:58:19.069Z,98959.79
2022-09-30T10:59:21.064Z,98963.46
2022-09-30T11:00:19.060Z,98954.02
2022-09-30T11:01:21.134Z,98945.46
2022-09-30T11:03:18.202Z,98952.36
2022-09-30T11:04:18.075Z,98937.92
2022-09-30T11:05:21.064Z,98946.54
2022-09-30T11:06:13.063Z,98933.45
2022-09-30T11:07:21.068Z,98938.31
2022-09-30T11:08:21.063Z,98938.42
2022-09-30T11:09:17.071Z,98933.67
2022-09-30T11:10:19.065Z,98927.76
2022-09-30T11:11:20.060Z,98917.63
2022-09-30T11:12:19.065Z,98921.89
2022-09-30T11:13:23.072Z,98898.80
2022-09-30T11:14:19.066Z,98915.45
2022-09-30T11:15:18.063Z,98914.77
2022-09-30T11:16:21.137Z,98920.68
2022-09-30T11:17:22.585Z,98922.71
2022-09-30T11:18:21.066Z,98922.97
2022-09-30T11:19:19.073Z,98906.95
2022-09-30T11:20:21.067Z,98910.64
2022-09-30T11:21:19.057Z,98906.09
2022-09-30T11:22:21.055Z,98917.61
2022-09-30T11:23:19.057Z,98901.89
2022-09-30T11:24:19.067Z,98907.21
2022-09-30T11:25:17.061Z,98908.18
2022-09-30T11:26:19.059Z,98911.93
2022-09-30T11:27:19.060Z,98906.84
2022-09-30T11:28:19.119Z,98904.31
2022-09-30T11:29:19.061Z,98908.05
2022-09-30T11:30:19.058Z,98910.92
2022-09-30T11:31:19.136Z,98912.92
2022-09-30T11:32:19.064Z,98901.73
2022-09-30T11:33:21.061Z,98897.53
2022-09-30T11:34:21.060Z,98897.27
2022-09-30T11:35:19.062Z,98894.65
2022-09-30T11:36:21.064Z,98892.46
2022-09-30T11:37:19.059Z,98887.36
2022-09-30T11:38:16.073Z,98889.89
2022-09-30T11:39:19.063Z,98880.14
2022-09-30T11:40:19.057Z,98891.79
2022-09-30T11:41:21.062Z,98886.29
2022-09-30T11:42:19.084Z,98890.31
2022-09-30T11:43:21.064Z,98890.04
2022-09-30T11:44:19.059Z,98884.43
2022-09-30T11:45:19.062Z,98884.60